KCVS/CVS METAR and TAF weather

Enter ICAO airport designator
Station Type Date Time Source
KCVS METAR 2022/06/29 00:58 UTC NOAA

KCVS 290058Z AUTO 19005KT 10SM CLR 29/09 A3022 RMK AO2 SLP175 T02930094 $


Station Type Date Time Source
KCVS Decoded METAR 2022/06/29 00:58 UTC NOAA

Cannon Air Force Base / Clovis, NM, United States (KCVS) 34-23N 103-19W
Jun 28, 2022 - 08:58 PM EDT / 2022.06.29 0058 UTC
Wind: from the S (190 degrees) at 6 MPH (5 KT):0
Visibility: 10 mile(s):0
Sky conditions: clear
Temperature: 84.7 F (29.3 C)
Dew Point: 48.9 F (9.4 C)
Relative Humidity: 28%
Pressure (altimeter): 30.22 in. Hg (1023 hPa)
ob: KCVS 290058Z AUTO 19005KT 10SM CLR 29/09 A3022 RMK AO2 SLP175 T02930094
cycle: 1

Station Type Date Time Source
KCVS TAF 2022/06/28 18:03 UTC NOAA

TAF TAF KCVS 281800Z 2818/2924 26010G15KT 9999 FEW080 SCT150 QNH3027INS
BECMG 2822/2823 20010G15KT 9999 FEW080 SCT120 QNH3023INS
BECMG 2901/2902 VRB06KT 9999 FEW100 QNH3026INS
BECMG 2914/2915 22012KT 9999 FEW100 QNH3029INS
BECMG 2918/2919 20010G18KT 9999 SKC QNH3017INS TX29/2822Z TN17/2912Z

Example: see airport list